createdAt,value
2018-11-12T00:00:47.962Z,205.00
2018-11-12T00:03:20.183Z,199.80
2018-11-12T00:05:52.472Z,208.00
2018-11-12T00:08:24.764Z,195.20
2018-11-12T00:10:57.266Z,199.20
2018-11-12T00:13:29.354Z,210.20
2018-11-12T00:16:01.682Z,200.60
2018-11-12T00:18:33.911Z,194.80
2018-11-12T00:21:06.436Z,195.00
2018-11-12T00:23:38.568Z,196.20
2018-11-12T00:26:10.758Z,196.80
2018-11-12T00:28:42.600Z,195.80
2018-11-12T00:31:15.032Z,190.20
2018-11-12T00:33:47.052Z,197.20
2018-11-12T00:36:18.844Z,185.20
2018-11-12T00:38:51.046Z,190.60
2018-11-12T00:41:23.053Z,190.00
2018-11-12T00:43:54.792Z,192.40
2018-11-12T00:46:26.909Z,179.80
2018-11-12T00:48:59.051Z,173.60
2018-11-12T00:51:31.710Z,179.60
2018-11-12T00:54:03.866Z,178.20
2018-11-12T00:56:36.106Z,186.60
2018-11-12T00:59:07.732Z,183.80
2018-11-12T01:01:40.131Z,177.40
2018-11-12T01:04:12.376Z,188.00
2018-11-12T01:06:44.728Z,183.20
2018-11-12T01:09:16.829Z,181.60
2018-11-12T01:11:49.724Z,175.80
2018-11-12T01:14:22.157Z,166.40
2018-11-12T01:16:54.478Z,182.20
2018-11-12T01:19:26.578Z,189.20
2018-11-12T01:21:58.927Z,179.20
2018-11-12T01:24:31.010Z,175.20
2018-11-12T01:27:03.206Z,181.60
2018-11-12T01:29:35.424Z,169.40
2018-11-12T01:32:07.360Z,175.40
2018-11-12T01:34:39.485Z,193.00
2018-11-12T01:37:11.438Z,179.20
2018-11-12T01:39:43.692Z,183.60
2018-11-12T01:42:15.707Z,175.80
2018-11-12T01:44:47.810Z,185.40
2018-11-12T01:47:19.763Z,195.00
2018-11-12T01:49:51.640Z,187.00
2018-11-12T01:52:24.346Z,203.00
2018-11-12T01:54:56.667Z,237.25
2018-11-12T01:57:28.854Z,227.75
2018-11-12T02:00:00.905Z,238.50
2018-11-12T02:02:33.141Z,220.00
2018-11-12T02:05:05.388Z,213.50
2018-11-12T02:07:37.566Z,213.25
2018-11-12T02:10:11.086Z,231.75
2018-11-12T02:12:43.692Z,224.75
2018-11-12T02:15:17.274Z,207.00
2018-11-12T02:17:50.112Z,213.25
2018-11-12T02:20:22.713Z,228.00
2018-11-12T02:22:55.283Z,232.25
2018-11-12T02:25:27.341Z,224.00
2018-11-12T02:27:59.704Z,220.25
2018-11-12T02:30:36.516Z,221.25
2018-11-12T02:33:08.357Z,230.25
2018-11-12T02:35:40.559Z,236.50
2018-11-12T02:38:12.736Z,231.75
2018-11-12T02:40:44.808Z,238.75
2018-11-12T02:43:17.115Z,234.25
2018-11-12T02:45:48.994Z,224.25
2018-11-12T02:48:21.249Z,241.50
2018-11-12T02:50:53.971Z,232.25
2018-11-12T02:53:26.634Z,235.75
2018-11-12T02:55:58.666Z,250.75
2018-11-12T02:58:30.875Z,237.50
2018-11-12T03:01:02.978Z,269.00
2018-11-12T03:03:35.453Z,259.25
2018-11-12T03:06:07.558Z,278.00
2018-11-12T03:08:39.728Z,250.25
2018-11-12T03:11:11.609Z,267.25
2018-11-12T03:13:44.022Z,256.50
2018-11-12T03:16:16.208Z,262.25
2018-11-12T03:18:48.474Z,273.75
2018-11-12T03:21:20.497Z,269.25
2018-11-12T03:23:53.258Z,273.00
2018-11-12T03:26:25.163Z,254.25
2018-11-12T03:28:57.200Z,272.75
2018-11-12T03:31:29.472Z,254.75
2018-11-12T03:34:01.417Z,260.25
2018-11-12T03:36:33.469Z,247.00
2018-11-12T03:39:05.999Z,252.00
2018-11-12T03:41:38.011Z,258.25
2018-11-12T03:44:19.782Z,237.25
2018-11-12T03:46:51.795Z,244.00
2018-11-12T03:49:23.847Z,254.50
2018-11-12T03:51:55.850Z,231.25
2018-11-12T03:54:28.541Z,244.00
2018-11-12T03:57:00.574Z,225.25
2018-11-12T03:59:32.529Z,234.75
2018-11-12T04:02:04.727Z,246.00
2018-11-12T04:04:36.847Z,229.50
2018-11-12T04:07:08.690Z,222.25
2018-11-12T04:09:40.764Z,210.50
2018-11-12T04:12:12.859Z,228.75
2018-11-12T04:14:45.882Z,241.25
2018-11-12T04:17:18.033Z,234.00
2018-11-12T04:19:50.343Z,226.00
2018-11-12T04:22:22.339Z,228.25
2018-11-12T04:24:55.291Z,231.50
2018-11-12T04:27:27.614Z,231.25
2018-11-12T04:29:59.721Z,222.50
2018-11-12T04:32:31.853Z,230.00
2018-11-12T04:35:04.133Z,239.50
2018-11-12T04:37:36.227Z,228.25
2018-11-12T04:40:09.067Z,220.00
2018-11-12T04:42:41.535Z,236.25
2018-11-12T04:45:15.901Z,218.25
2018-11-12T04:47:48.605Z,227.75
2018-11-12T04:50:23.121Z,249.75
2018-11-12T04:52:55.465Z,229.25
2018-11-12T04:55:28.109Z,224.50
2018-11-12T04:58:00.010Z,226.25
2018-11-12T05:00:32.021Z,228.00
2018-11-12T05:03:04.050Z,226.25
2018-11-12T05:05:36.317Z,240.75
2018-11-12T05:08:08.153Z,214.50
2018-11-12T05:10:40.390Z,215.00
2018-11-12T05:13:12.335Z,231.00
2018-11-12T05:15:44.583Z,212.75
2018-11-12T05:18:16.638Z,212.75
2018-11-12T05:20:48.940Z,210.75
2018-11-12T05:23:20.690Z,195.25
2018-11-12T05:25:53.399Z,223.25
2018-11-12T05:28:26.089Z,209.25
2018-11-12T05:30:58.372Z,202.40
2018-11-12T05:33:30.410Z,198.80
2018-11-12T05:36:02.599Z,203.20
2018-11-12T05:38:34.738Z,194.60
2018-11-12T05:41:06.966Z,199.80
2018-11-12T05:43:38.955Z,194.00
2018-11-12T05:46:10.968Z,179.60
2018-11-12T05:48:43.113Z,182.40
2018-11-12T05:51:15.624Z,177.80
2018-11-12T05:53:47.765Z,191.40
2018-11-12T05:56:20.263Z,180.40
2018-11-12T05:58:52.285Z,167.80
2018-11-12T06:01:24.688Z,168.80
2018-11-12T06:03:56.775Z,178.00
2018-11-12T06:06:28.668Z,170.20
2018-11-12T06:09:02.730Z,155.80
2018-11-12T06:11:35.170Z,147.00
2018-11-12T06:14:07.491Z,147.60
2018-11-12T06:16:39.582Z,154.40
2018-11-12T06:19:11.714Z,139.60
2018-11-12T06:21:43.904Z,151.80
2018-11-12T06:24:15.888Z,145.20
2018-11-12T06:26:48.453Z,149.20
2018-11-12T06:29:20.556Z,142.80
2018-11-12T06:31:52.849Z,139.80
2018-11-12T06:34:24.548Z,135.60
2018-11-12T06:36:57.167Z,138.80
2018-11-12T06:39:29.318Z,142.20
2018-11-12T06:42:01.302Z,126.20
2018-11-12T06:44:33.186Z,132.00
2018-11-12T06:47:05.338Z,128.80
2018-11-12T06:49:37.456Z,120.00
2018-11-12T06:52:09.737Z,128.80
2018-11-12T06:54:41.506Z,126.80
2018-11-12T06:57:14.041Z,120.60
2018-11-12T06:59:46.032Z,127.20
2018-11-12T07:02:17.862Z,130.00
2018-11-12T07:04:49.741Z,126.40
2018-11-12T07:07:21.818Z,131.00
2018-11-12T07:09:54.868Z,117.00
2018-11-12T07:12:27.382Z,124.80
2018-11-12T07:15:15.660Z,125.80
2018-11-12T07:18:03.286Z,123.00
2018-11-12T07:20:52.652Z,124.60
2018-11-12T07:23:24.875Z,119.40
2018-11-12T07:25:56.831Z,116.60
2018-11-12T07:28:29.367Z,119.80
2018-11-12T07:31:01.589Z,120.20
2018-11-12T07:33:33.427Z,119.80
2018-11-12T07:36:05.334Z,118.40
2018-11-12T07:38:37.438Z,122.80
2018-11-12T07:41:09.391Z,119.80
2018-11-12T07:43:41.538Z,116.80
2018-11-12T07:46:17.518Z,123.00
2018-11-12T07:48:49.684Z,116.60
2018-11-12T07:51:21.941Z,123.40
2018-11-12T07:53:53.830Z,123.00
2018-11-12T07:56:26.106Z,117.40
2018-11-12T07:58:58.823Z,117.80
2018-11-12T08:01:31.156Z,108.00
2018-11-12T08:04:03.311Z,116.20
2018-11-12T08:06:35.224Z,116.40
2018-11-12T08:09:08.538Z,110.40
2018-11-12T08:11:41.048Z,110.20
2018-11-12T08:14:13.424Z,96.20
2018-11-12T08:16:45.897Z,110.80
2018-11-12T08:19:18.050Z,111.20
2018-11-12T08:21:50.152Z,102.80
2018-11-12T08:24:22.550Z,108.40
2018-11-12T08:26:54.689Z,106.80
2018-11-12T08:29:27.079Z,102.80
2018-11-12T08:31:59.258Z,106.60
2018-11-12T08:34:31.193Z,92.80
2018-11-12T08:37:03.659Z,102.00
2018-11-12T08:39:35.804Z,106.20
2018-11-12T08:42:07.854Z,103.40
2018-11-12T08:44:39.904Z,96.80
2018-11-12T08:47:11.963Z,100.40
2018-11-12T08:49:44.092Z,96.60
2018-11-12T08:52:16.390Z,96.40
2018-11-12T08:54:48.562Z,102.00
2018-11-12T08:57:20.615Z,102.80
2018-11-12T08:59:53.333Z,96.40
2018-11-12T09:02:25.365Z,96.60
2018-11-12T09:04:57.688Z,100.20
2018-11-12T09:07:29.611Z,105.00
2018-11-12T09:10:01.516Z,98.60
2018-11-12T09:12:34.068Z,92.60
2018-11-12T09:15:06.101Z,99.60
2018-11-12T09:17:38.735Z,97.20
2018-11-12T09:20:12.975Z,92.40
2018-11-12T09:22:44.977Z,90.60
2018-11-12T09:25:18.177Z,97.80
2018-11-12T09:27:50.438Z,96.60
2018-11-12T09:30:24.468Z,94.00
2018-11-12T09:32:56.791Z,95.20
2018-11-12T09:35:30.172Z,98.20
2018-11-12T09:38:03.393Z,97.60
2018-11-12T09:40:38.487Z,93.60
2018-11-12T09:43:10.547Z,98.40
2018-11-12T09:45:42.830Z,87.60
2018-11-12T09:48:14.843Z,94.80
2018-11-12T09:50:46.824Z,96.60
2018-11-12T09:53:18.728Z,100.60
2018-11-12T09:55:50.934Z,94.40
2018-11-12T09:58:22.934Z,92.60
2018-11-12T10:00:56.499Z,104.20
2018-11-12T10:03:30.524Z,91.40
2018-11-12T10:06:03.268Z,100.40
2018-11-12T10:08:38.526Z,95.20
2018-11-12T10:11:11.321Z,93.60
2018-11-12T10:13:43.050Z,95.20
2018-11-12T10:16:15.977Z,95.80
2018-11-12T10:18:45.721Z,95.00
2018-11-12T10:21:17.923Z,96.60
2018-11-12T10:23:50.096Z,92.60
2018-11-12T10:26:22.527Z,88.60
2018-11-12T10:28:54.536Z,93.00
2018-11-12T10:31:27.488Z,92.40
2018-11-12T10:33:59.310Z,89.60
2018-11-12T10:36:31.558Z,90.20
2018-11-12T10:39:03.649Z,95.20
2018-11-12T10:41:35.528Z,91.80
2018-11-12T10:44:09.718Z,95.40
2018-11-12T10:46:43.391Z,95.20
2018-11-12T10:49:17.964Z,89.60
2018-11-12T10:51:50.607Z,90.20
2018-11-12T10:54:22.782Z,92.00
2018-11-12T10:56:54.949Z,90.60
2018-11-12T10:59:27.024Z,86.80
2018-11-12T11:02:03.953Z,91.80
2018-11-12T11:04:36.017Z,90.20
2018-11-12T11:07:08.347Z,89.00
2018-11-12T11:09:40.055Z,93.40
2018-11-12T11:12:12.413Z,90.00
2018-11-12T11:14:44.516Z,95.80
2018-11-12T11:17:17.353Z,106.40
2018-11-12T11:19:49.466Z,104.40
2018-11-12T11:22:21.799Z,96.80
2018-11-12T11:24:53.963Z,103.60
2018-11-12T11:27:26.527Z,99.20
2018-11-12T11:29:58.571Z,94.40
2018-11-12T11:32:31.325Z,102.00
2018-11-12T11:35:03.236Z,103.60
2018-11-12T11:37:35.422Z,102.60
2018-11-12T11:40:10.343Z,98.60
2018-11-12T11:42:42.644Z,99.00
2018-11-12T11:45:15.438Z,100.60
2018-11-12T11:47:48.546Z,103.40
2018-11-12T11:50:22.007Z,108.60
2018-11-12T11:52:54.303Z,98.40
2018-11-12T11:55:26.639Z,103.20
2018-11-12T11:57:58.856Z,105.80
2018-11-12T12:00:31.252Z,97.00
2018-11-12T12:03:03.790Z,90.20
2018-11-12T12:05:35.991Z,93.80
2018-11-12T13:08:04.883Z,160.25
2018-11-12T13:10:38.239Z,137.60
2018-11-12T13:13:11.015Z,168.20
2018-11-12T13:15:42.732Z,162.80
2018-11-12T13:18:14.512Z,182.60
2018-11-12T13:20:46.818Z,188.80
2018-11-12T13:23:19.117Z,203.75
2018-11-12T13:25:51.780Z,263.50
2018-11-12T13:28:23.532Z,243.50
2018-11-12T13:30:55.251Z,257.00
2018-11-12T13:33:27.173Z,255.25
2018-11-12T13:35:59.195Z,266.50
2018-11-12T13:38:31.130Z,289.75
2018-11-12T13:41:04.703Z,313.75
2018-11-12T13:43:37.178Z,270.50
2018-11-12T13:46:08.887Z,278.50
2018-11-12T13:48:40.708Z,276.25
2018-11-12T13:51:12.256Z,286.50
2018-11-12T13:53:44.052Z,300.75
2018-11-12T13:56:15.889Z,281.00
2018-11-12T13:58:48.171Z,307.25
2018-11-12T14:01:19.814Z,299.50
2018-11-12T14:03:52.360Z,303.25
2018-11-12T14:06:24.159Z,303.25
2018-11-12T14:08:56.623Z,323.50
2018-11-12T14:11:29.290Z,347.75
2018-11-12T14:14:01.913Z,350.75
2018-11-12T14:16:33.958Z,380.20
2018-11-12T14:19:06.560Z,331.40
2018-11-12T14:21:38.544Z,318.00
2018-11-12T14:24:11.611Z,317.75
2018-11-12T14:26:43.529Z,317.25
2018-11-12T14:29:15.303Z,314.00
2018-11-12T14:31:47.159Z,342.00
2018-11-12T14:34:19.293Z,311.50
2018-11-12T14:36:51.642Z,335.75
2018-11-12T14:39:24.034Z,331.75
2018-11-12T14:41:56.398Z,311.25
2018-11-12T14:44:28.293Z,321.00
2018-11-12T14:47:00.110Z,305.75
2018-11-12T14:49:32.180Z,334.25
2018-11-12T14:52:04.028Z,312.00
2018-11-12T14:54:36.772Z,330.00
2018-11-12T14:57:08.837Z,328.25
2018-11-12T14:59:40.966Z,329.00
2018-11-12T15:02:12.830Z,297.25
2018-11-12T15:04:44.745Z,335.25
2018-11-12T15:07:16.662Z,300.25
2018-11-12T15:09:48.350Z,313.25
2018-11-12T15:12:20.965Z,325.75
2018-11-12T15:14:53.481Z,339.75
2018-11-12T15:17:26.224Z,348.50
2018-11-12T15:19:57.976Z,309.00
2018-11-12T15:22:29.715Z,351.75
2018-11-12T15:25:01.367Z,346.40
2018-11-12T15:27:34.411Z,314.25
2018-11-12T15:30:07.401Z,302.75
2018-11-12T15:32:39.172Z,329.20
2018-11-12T15:35:11.849Z,332.50
2018-11-12T15:37:44.138Z,293.25
2018-11-12T15:40:16.335Z,303.25
2018-11-12T15:42:48.383Z,291.00
2018-11-12T15:45:23.312Z,270.25
2018-11-12T15:47:55.271Z,285.00
2018-11-12T15:50:33.464Z,272.75
2018-11-12T15:53:05.058Z,274.25
2018-11-12T15:55:36.837Z,259.00
2018-11-12T15:58:08.632Z,275.00
2018-11-12T16:00:40.487Z,283.50
2018-11-12T16:03:11.987Z,255.75
2018-11-12T16:05:43.804Z,314.75
2018-11-12T16:08:15.395Z,300.25
2018-11-12T16:10:47.289Z,307.25
2018-11-12T16:13:20.360Z,297.75
2018-11-12T16:15:53.251Z,286.50
2018-11-12T16:18:25.828Z,313.25
2018-11-12T16:20:57.403Z,296.25
2018-11-12T16:23:29.259Z,291.00
2018-11-12T16:26:01.164Z,312.00
2018-11-12T16:30:59.405Z,284.60
2018-11-12T16:33:30.969Z,320.50
2018-11-12T16:36:02.706Z,318.50
2018-11-12T16:38:34.967Z,327.00
2018-11-12T16:41:06.645Z,330.25
2018-11-12T16:43:39.394Z,305.25
2018-11-12T16:46:11.569Z,313.75
2018-11-12T16:48:43.338Z,317.75
2018-11-12T16:51:14.670Z,306.00
2018-11-12T16:53:46.619Z,306.40
2018-11-12T16:56:18.269Z,325.50
2018-11-12T16:58:50.606Z,318.50
2018-11-12T17:01:22.258Z,317.50
2018-11-12T17:03:54.188Z,341.75
2018-11-12T17:06:25.801Z,337.25
2018-11-12T17:08:57.819Z,333.00
2018-11-12T17:11:29.329Z,318.25
2018-11-12T17:14:02.197Z,302.75
2018-11-12T17:16:34.254Z,304.00
2018-11-12T17:19:07.111Z,272.50
2018-11-12T17:21:39.069Z,316.75
2018-11-12T17:24:11.345Z,311.75
2018-11-12T17:26:42.897Z,305.25
2018-11-12T17:29:14.454Z,305.75
2018-11-12T17:31:46.127Z,304.75
2018-11-12T17:34:17.543Z,308.75
2018-11-12T17:36:49.252Z,300.25
2018-11-12T17:39:20.980Z,288.50
2018-11-12T17:41:52.436Z,302.75
2018-11-12T17:44:24.944Z,326.00
2018-11-12T17:46:56.738Z,286.25
2018-11-12T17:49:28.426Z,297.50
2018-11-12T17:52:00.329Z,289.25
2018-11-12T17:54:32.553Z,303.50
2018-11-12T17:57:04.529Z,308.75
2018-11-12T17:59:36.816Z,295.25
2018-11-12T18:04:30.399Z,283.75
2018-11-12T18:07:03.295Z,279.25
2018-11-12T18:09:35.399Z,292.00
2018-11-12T18:12:08.173Z,305.50
2018-11-12T18:14:40.319Z,282.75
2018-11-12T18:19:42.612Z,310.75
2018-11-12T18:22:14.817Z,315.50
2018-11-12T18:24:46.533Z,285.50
2018-11-12T18:27:18.085Z,289.25
2018-11-12T18:29:49.809Z,307.25
2018-11-12T18:32:21.632Z,310.75
2018-11-12T18:34:53.267Z,306.75
2018-11-12T18:37:24.846Z,297.00
2018-11-12T18:39:56.377Z,307.50
2018-11-12T18:42:27.860Z,291.50
2018-11-12T18:44:59.968Z,290.50
2018-11-12T18:47:31.560Z,315.75
2018-11-12T18:50:03.220Z,305.50
2018-11-12T18:52:34.707Z,295.25
2018-11-12T18:55:07.228Z,298.25
2018-11-12T18:57:39.404Z,283.25
2018-11-12T19:02:46.226Z,288.25
2018-11-12T19:05:21.595Z,274.00
2018-11-12T19:12:30.268Z,296.25
2018-11-12T19:15:02.602Z,304.50
2018-11-12T19:20:31.321Z,278.50
2018-11-12T19:23:02.920Z,296.50
2018-11-12T19:25:34.636Z,309.00
2018-11-12T19:28:06.356Z,286.25
2018-11-12T19:30:38.031Z,276.75
2018-11-12T19:35:35.506Z,276.00
2018-11-12T19:40:32.460Z,280.50
2018-11-12T19:43:04.149Z,279.00
2018-11-12T19:47:59.327Z,250.00
2018-11-12T19:50:31.518Z,276.25
2018-11-12T19:53:03.269Z,283.25
2018-11-12T19:55:34.979Z,279.75
2018-11-12T19:58:06.593Z,288.50
2018-11-12T20:00:38.266Z,289.00
2018-11-12T20:03:09.837Z,275.50
2018-11-12T20:05:41.334Z,280.75
2018-11-12T20:10:41.185Z,291.00
2018-11-12T20:13:12.695Z,281.25
2018-11-12T20:15:44.720Z,270.00
2018-11-12T20:18:16.477Z,281.50
2018-11-12T20:23:12.335Z,290.25
2018-11-12T20:25:43.778Z,281.25
2018-11-12T20:28:15.311Z,303.75
2018-11-12T20:30:46.807Z,300.50
2018-11-12T20:33:18.442Z,295.00
2018-11-12T20:37:19.498Z,277.75
2018-11-12T20:39:51.584Z,310.50
2018-11-12T20:44:38.181Z,307.00
2018-11-12T20:47:10.373Z,309.00
2018-11-12T20:49:41.885Z,327.75
2018-11-12T20:52:13.659Z,313.50
2018-11-12T20:54:46.229Z,318.75
2018-11-12T20:57:18.135Z,319.00
2018-11-12T20:59:49.720Z,326.75
2018-11-12T21:02:21.114Z,326.00
2018-11-12T21:07:52.832Z,323.25
2018-11-12T21:10:24.386Z,313.25
2018-11-12T21:12:55.930Z,298.25
2018-11-12T21:17:49.300Z,322.25
2018-11-12T21:20:24.499Z,328.50
2018-11-12T21:22:56.482Z,323.75
2018-11-12T21:27:51.618Z,328.75
2018-11-12T21:30:24.470Z,319.25
2018-11-12T21:32:56.341Z,301.75
2018-11-12T21:35:27.970Z,326.50
2018-11-12T21:38:00.003Z,304.00
2018-11-12T21:43:01.479Z,295.50
2018-11-12T21:45:33.584Z,332.00
2018-11-12T21:56:36.468Z,298.00
2018-11-12T21:59:08.499Z,313.75
2018-11-12T22:01:40.422Z,296.00
2018-11-12T22:06:47.018Z,299.00
2018-11-12T22:09:18.522Z,300.75
2018-11-12T22:11:50.310Z,293.00
2018-11-12T22:14:21.779Z,285.25
2018-11-12T22:16:53.430Z,290.25
2018-11-12T22:19:24.980Z,306.00
2018-11-12T22:21:56.590Z,299.75
2018-11-12T22:24:28.081Z,265.25
2018-11-12T22:27:01.205Z,280.00
2018-11-12T22:29:33.694Z,291.75
2018-11-12T22:32:05.512Z,301.25
2018-11-12T22:34:37.137Z,280.75
2018-11-12T22:37:08.739Z,275.50
2018-11-12T22:39:40.252Z,285.00
2018-11-12T22:42:11.987Z,282.50
2018-11-12T22:44:43.429Z,297.00
2018-11-12T22:47:14.996Z,283.00
2018-11-12T22:49:46.384Z,295.75
2018-11-12T22:52:18.123Z,304.75
2018-11-12T22:54:49.689Z,278.00
2018-11-12T22:57:21.516Z,287.50
2018-11-12T22:59:53.700Z,285.75
2018-11-12T23:02:25.461Z,283.25
2018-11-12T23:04:57.008Z,268.00
2018-11-12T23:07:28.554Z,291.00
2018-11-12T23:10:00.152Z,292.75
2018-11-12T23:12:31.814Z,276.50
2018-11-12T23:15:03.485Z,272.50
2018-11-12T23:17:35.325Z,282.00
2018-11-12T23:20:08.475Z,260.00
2018-11-12T23:22:40.702Z,266.25
2018-11-12T23:25:12.447Z,245.00
2018-11-12T23:27:45.075Z,274.25
2018-11-12T23:30:18.397Z,268.25
2018-11-12T23:32:50.623Z,242.50
2018-11-12T23:35:24.425Z,274.00
2018-11-12T23:37:56.382Z,283.50
2018-11-12T23:40:28.363Z,280.00
2018-11-12T23:43:00.436Z,300.00
2018-11-12T23:47:55.076Z,290.00
2018-11-12T23:50:26.792Z,301.00
2018-11-12T23:52:58.340Z,309.75
2018-11-12T23:55:29.964Z,342.25
2018-11-12T23:58:01.642Z,299.00
